Piper Inness — WDC3984 — position and weather

sailwx.info

Track history (hours):
 
Tides and Currents Weather Stations Pressure Air Temp Water Temp Dewpoint Dewpoint Depression Visibility Wind Speed Wind Dir Waves Ship Positions

Piper Inness

Owner: Foss Maritime Co, Seattle, WA. More information available from US FCC via Universal Licensing System and Coast Guard Vessel Documentation Center.

Last reported at 2016-Jul-30 20:33 UTC. Time now 2016-Jul-30 20:48 UTC.
Position N 32°59' W 117°44'.

; draft 2 m.

Type: Other ship. MMSI: 367017440.

Date/timePositionNaut miles runAvg speedWind from/ knotsBaromVisibWave heightAir tempDewpointWater temp
2016-Jul-30 20:33N 32°59' W 117°44'1 1.0
2016-Jul-30 19:33N 32°58' W 117°44'2 2.2
2016-Jul-30 18:33N 32°56' W 117°44'1 1.1
2016-Jul-30 17:33N 32°56' W 117°45'0 0.2
2016-Jul-30 16:34N 32°57' W 117°45'1 0.6
2016-Jul-30 15:33N 32°57' W 117°45'1 0.8
2016-Jul-30 14:33N 32°56' W 117°45'1 0.9
2016-Jul-30 13:34N 32°57' W 117°46'0 0.3
2016-Jul-30 12:33N 32°57' W 117°46'0 0.5
2016-Jul-30 11:33N 32°57' W 117°47'1 1.3
2016-Jul-30 10:34N 32°58' W 117°47'0 0.3
2016-Jul-30 09:33N 32°58' W 117°47'1 1.1
2016-Jul-30 08:33N 32°58' W 117°48'0 0.1
2016-Jul-30 07:34N 32°58' W 117°48'1 1.1
2016-Jul-30 06:33N 32°59' W 117°49'4 4.4
2016-Jul-30 05:33N 33°03' W 117°51'3 3.2
2016-Jul-30 04:33N 33°06' W 117°53'2 2.0
2016-Jul-30 03:33N 33°08' W 117°52'3 2.9
2016-Jul-30 02:32N 33°10' W 117°54'2 2.4
2016-Jul-30 01:34N 33°10' W 117°57'1211.9
2016-Jul-30 00:33N 33°21' W 118°01'1717.3
2016-Jul-29 23:33N 33°38' W 118°08'9 4.2
2016-Jul-29 21:19N 33°46' W 118°13'0 0.0
2016-Jul-29 16:12N 33°46' W 118°13'0 0.0
2016-Jul-29 10:24N 33°46' W 118°13'0 0.0
2016-Jul-29 09:30N 33°46' W 118°13'0 0.0
2016-Jul-29 08:30N 33°46' W 118°13'0 0.0
2016-Jul-29 00:21N 33°46' W 118°13'0 0.0
2016-Jul-28 22:12N 33°46' W 118°13'0 0.0
2016-Jul-28 21:30N 33°46' W 118°13'0 0.0
2016-Jul-28 19:18N 33°46' W 118°13'0 0.0
2016-Jul-28 15:06N 33°46' W 118°13'0 0.0
2016-Jul-28 11:18N 33°46' W 118°13'0 0.0
2016-Jul-28 03:18N 33°46' W 118°13'0 0.0
2016-Jul-27 22:25N 33°46' W 118°13'0 0.0
2016-Jul-27 21:19N 33°46' W 118°13'0 0.0
2016-Jul-27 19:16N 33°46' W 118°13'0 0.0
2016-Jul-27 18:33N 33°46' W 118°13'0 0.0
2016-Jul-27 15:29N 33°46' W 118°13'0 0.0
2016-Jul-27 14:26N 33°46' W 118°13'0 0.0
2016-Jul-27 13:19N 33°46' W 118°13'0 0.0
2016-Jul-27 12:22N 33°46' W 118°13'0 0.0
2016-Jul-27 11:33N 33°46' W 118°13'0 0.0
2016-Jul-27 09:33N 33°46' W 118°13'0 0.0
2016-Jul-27 08:10N 33°46' W 118°13'0 0.0
2016-Jul-27 05:27N 33°46' W 118°13'0 0.0
2016-Jul-27 04:33N 33°46' W 118°13'0 0.0
2016-Jul-27 03:32N 33°46' W 118°13'0 0.0
2016-Jul-27 02:33N 33°46' W 118°13'0 0.0
2016-Jul-27 01:32N 33°46' W 118°13'0 0.0
2016-Jul-27 00:31N 33°46' W 118°13'0 0.0
2016-Jul-26 23:33N 33°46' W 118°13'0 0.0
2016-Jul-26 22:23N 33°46' W 118°13'0 0.0
2016-Jul-26 21:33N 33°46' W 118°13'0 0.0
2016-Jul-26 20:30N 33°46' W 118°13'0 0.0
2016-Jul-26 17:33N 33°46' W 118°13'0 0.0
2016-Jul-26 16:18N 33°46' W 118°13'0 0.0
2016-Jul-26 15:32N 33°46' W 118°13'0 0.0
2016-Jul-26 14:29N 33°46' W 118°13'0 0.0
2016-Jul-26 11:17N 33°46' W 118°13'0 0.0
2016-Jul-26 07:04N 33°46' W 118°13'0 0.0
2016-Jul-26 05:33N 33°46' W 118°13'0 0.0
2016-Jul-26 04:21N 33°46' W 118°13'0 0.0
2016-Jul-26 03:31N 33°46' W 118°13'0 0.0
2016-Jul-26 02:31N 33°46' W 118°13'0 0.0
2016-Jul-26 01:33N 33°46' W 118°13'0 0.0
2016-Jul-26 00:33N 33°46' W 118°13'0 0.0
2016-Jul-25 23:33N 33°46' W 118°13'0 0.0
2016-Jul-25 22:33N 33°46' W 118°13'0 0.0
2016-Jul-25 21:33N 33°46' W 118°13'0 0.0
2016-Jul-25 20:32N 33°46' W 118°13'0 0.0
2016-Jul-25 19:09N 33°46' W 118°13'0 0.0
2016-Jul-25 18:33N 33°46' W 118°13'0 0.0
2016-Jul-25 17:09N 33°46' W 118°13'0 0.0
2016-Jul-25 16:31N 33°46' W 118°13'0 0.0
2016-Jul-25 14:21N 33°46' W 118°13'0 0.0
2016-Jul-25 08:16N 33°46' W 118°13'0 0.0
2016-Jul-25 06:31N 33°46' W 118°13'0 0.0
2016-Jul-25 05:29N 33°46' W 118°13'0 0.0
2016-Jul-25 04:33N 33°46' W 118°13'0 0.0
2016-Jul-25 03:31N 33°46' W 118°13'0 0.0
2016-Jul-25 02:33N 33°46' W 118°13'0 0.0
2016-Jul-25 01:10N 33°46' W 118°13'0 0.0
2016-Jul-25 00:26N 33°46' W 118°13'0 0.0
2016-Jul-24 23:33N 33°46' W 118°13'0 0.0
2016-Jul-24 22:28N 33°46' W 118°13'0 0.0
2016-Jul-24 21:24N 33°46' W 118°13'0 0.0
2016-Jul-24 16:32N 33°46' W 118°13'0 0.0
2016-Jul-24 15:26N 33°46' W 118°13'0 0.0
2016-Jul-24 14:33N 33°46' W 118°13'0 0.0
2016-Jul-24 13:33N 33°46' W 118°13'0 0.0
2016-Jul-24 12:33N 33°46' W 118°13'0 0.0
2016-Jul-24 11:33N 33°46' W 118°13'0 0.0
2016-Jul-24 10:12N 33°46' W 118°13'0 0.0
2016-Jul-24 09:33N 33°46' W 118°13'0 0.0
2016-Jul-24 08:33N 33°46' W 118°13'0 0.0
2016-Jul-24 07:33N 33°46' W 118°13'0 0.0
2016-Jul-24 06:32N 33°46' W 118°13'0 0.0
2016-Jul-24 05:33N 33°46' W 118°13'1 0.1
2016-Jul-23 21:33N 33°46' W 118°13'1312.7
2016-Jul-23 20:34N 33°34' W 118°06'1717.0
2016-Jul-23 19:33N 33°19' W 117°58'1110.6
2016-Jul-23 18:33N 33°09' W 117°53'7 6.9
2016-Jul-23 17:33N 33°04' W 117°48'0 0.4
2016-Jul-23 16:33N 33°03' W 117°48'1 0.8
2016-Jul-23 15:33N 33°03' W 117°47'2 1.6
2016-Jul-23 14:33N 33°01' W 117°47'2 2.2
2016-Jul-23 13:33N 33°01' W 117°49'3 2.8
2016-Jul-23 12:33N 33°00' W 117°46'1 0.8
2016-Jul-23 11:33N 32°60' W 117°46'1 0.7
2016-Jul-23 10:33N 32°59' W 117°46'1 1.4
2016-Jul-23 09:33N 33°00' W 117°45'2 1.6
2016-Jul-23 08:33N 33°01' W 117°46'2 1.6
2016-Jul-23 07:33N 32°59' W 117°47'1 0.8
2016-Jul-23 06:33N 32°59' W 117°48'1 0.3
2016-Jul-23 04:33N 32°58' W 117°48'2 2.3
2016-Jul-23 03:34N 32°57' W 117°45'1 0.7
2016-Jul-23 02:33N 32°57' W 117°46'0 0.5
2016-Jul-23 01:33N 32°58' W 117°46'2 1.6
2016-Jul-23 00:33N 32°56' W 117°45'1 1.1
2016-Jul-22 23:33N 32°55' W 117°44'1 1.4
2016-Jul-22 22:33N 32°57' W 117°45'1 1.4
2016-Jul-22 21:33N 32°58' W 117°46'1 1.2
2016-Jul-22 20:33N 32°58' W 117°47'1 1.1
2016-Jul-22 19:33N 32°59' W 117°48'1 1.1
2016-Jul-22 18:33N 32°59' W 117°50'1 0.8
2016-Jul-22 17:33N 32°60' W 117°49'1 0.9
2016-Jul-22 16:33N 33°00' W 117°49'0 0.5
2016-Jul-22 15:33N 33°01' W 117°50'0 0.4
2016-Jul-22 14:33N 33°01' W 117°50'0 0.2
2016-Jul-22 13:33N 33°01' W 117°51'0 0.3
2016-Jul-22 12:33N 33°01' W 117°51'2 1.6
2016-Jul-22 11:33N 33°02' W 117°52'1 1.4
2016-Jul-22 10:33N 33°01' W 117°52'3 3.5
2016-Jul-22 09:33N 33°04' W 117°54'5 4.8
2016-Jul-22 08:33N 33°08' W 117°56'2 2.2
2016-Jul-22 07:33N 33°10' W 117°58'12 5.9
2016-Jul-22 05:33N 33°08' W 117°44'3 2.8
2016-Jul-22 04:33N 33°07' W 117°41'3 2.5
2016-Jul-22 03:33N 33°06' W 117°44'4 4.2
2016-Jul-22 02:33N 33°06' W 117°49'3 3.4
2016-Jul-22 01:33N 33°06' W 117°53'1 1.0
2016-Jul-22 00:33N 33°06' W 117°52'2 1.6
2016-Jul-21 23:34N 33°05' W 117°51'1 1.1
2016-Jul-21 22:34N 33°04' W 117°50'1 0.9
2016-Jul-21 21:34N 33°04' W 117°49'1 1.3
2016-Jul-21 20:34N 33°03' W 117°48'1 0.7
2016-Jul-21 19:34N 33°02' W 117°48'1 1.2
2016-Jul-21 18:33N 33°01' W 117°47'0 0.2
2016-Jul-21 17:34N 33°01' W 117°47'0 0.2
2016-Jul-21 16:34N 33°01' W 117°47'1 1.0
2016-Jul-21 15:34N 32°60' W 117°46'1 1.3
2016-Jul-21 14:33N 32°59' W 117°45'1 0.6
2016-Jul-21 13:33N 32°58' W 117°45'2 1.9
2016-Jul-21 12:33N 32°59' W 117°47'0 0.3
2016-Jul-21 11:34N 32°59' W 117°47'0 0.4
2016-Jul-21 10:34N 32°58' W 117°47'3 2.5
2016-Jul-21 09:34N 32°60' W 117°49'0 0.2
2016-Jul-21 08:34N 32°60' W 117°50'1 0.6
2016-Jul-21 07:33N 32°60' W 117°49'2 1.7
2016-Jul-21 06:34N 33°01' W 117°49'3 2.8
2016-Jul-21 05:34N 33°02' W 117°53'1 1.5
2016-Jul-21 04:34N 33°00' W 117°52'2 1.9
2016-Jul-21 03:34N 32°59' W 117°51'3 2.6
2016-Jul-21 02:34N 33°01' W 117°53'3 3.4
2016-Jul-21 01:33N 33°04' W 117°54'4 4.2
2016-Jul-21 00:33N 33°08' W 117°57'2 1.5
2016-Jul-20 23:33N 33°09' W 117°57'0 0.2
2016-Jul-20 22:33N 33°09' W 117°57'9 9.2
2016-Jul-20 21:33N 33°18' W 117°58'1717.3
2016-Jul-20 20:33N 33°35' W 118°05'  
Track history (hours):
 
Tides and Currents Weather Stations Pressure Air Temp Water Temp Dewpoint Dewpoint Depression Visibility Wind Speed Wind Dir Waves Ship Positions

Piper Inness

Owner: Foss Maritime Co, Seattle, WA. More information available from US FCC via Universal Licensing System and Coast Guard Vessel Documentation Center.

Last reported at 2016-Jul-30 20:33 UTC. Time now 2016-Jul-30 20:48 UTC.
Position N 32°59' W 117°44'.

; draft 2 m.

Type: Other ship. MMSI: 367017440.

Date/timePositionNaut miles runAvg speedWind from/ knotsBaromVisibWave heightAir tempDewpointWater temp
2016-Jul-30 20:33N 32°59' W 117°44'1 1.0
2016-Jul-30 19:33N 32°58' W 117°44'2 2.2
2016-Jul-30 18:33N 32°56' W 117°44'1 1.1
2016-Jul-30 17:33N 32°56' W 117°45'0 0.2
2016-Jul-30 16:34N 32°57' W 117°45'1 0.6
2016-Jul-30 15:33N 32°57' W 117°45'1 0.8
2016-Jul-30 14:33N 32°56' W 117°45'1 0.9
2016-Jul-30 13:34N 32°57' W 117°46'0 0.3
2016-Jul-30 12:33N 32°57' W 117°46'0 0.5
2016-Jul-30 11:33N 32°57' W 117°47'1 1.3
2016-Jul-30 10:34N 32°58' W 117°47'0 0.3
2016-Jul-30 09:33N 32°58' W 117°47'1 1.1
2016-Jul-30 08:33N 32°58' W 117°48'0 0.1
2016-Jul-30 07:34N 32°58' W 117°48'1 1.1
2016-Jul-30 06:33N 32°59' W 117°49'4 4.4
2016-Jul-30 05:33N 33°03' W 117°51'3 3.2
2016-Jul-30 04:33N 33°06' W 117°53'2 2.0
2016-Jul-30 03:33N 33°08' W 117°52'3 2.9
2016-Jul-30 02:32N 33°10' W 117°54'2 2.4
2016-Jul-30 01:34N 33°10' W 117°57'1211.9
2016-Jul-30 00:33N 33°21' W 118°01'1717.3
2016-Jul-29 23:33N 33°38' W 118°08'9 4.2
2016-Jul-29 21:19N 33°46' W 118°13'0 0.0
2016-Jul-29 16:12N 33°46' W 118°13'0 0.0
2016-Jul-29 10:24N 33°46' W 118°13'0 0.0
2016-Jul-29 09:30N 33°46' W 118°13'0 0.0
2016-Jul-29 08:30N 33°46' W 118°13'0 0.0
2016-Jul-29 00:21N 33°46' W 118°13'0 0.0
2016-Jul-28 22:12N 33°46' W 118°13'0 0.0
2016-Jul-28 21:30N 33°46' W 118°13'0 0.0
2016-Jul-28 19:18N 33°46' W 118°13'0 0.0
2016-Jul-28 15:06N 33°46' W 118°13'0 0.0
2016-Jul-28 11:18N 33°46' W 118°13'0 0.0
2016-Jul-28 03:18N 33°46' W 118°13'0 0.0
2016-Jul-27 22:25N 33°46' W 118°13'0 0.0
2016-Jul-27 21:19N 33°46' W 118°13'0 0.0
2016-Jul-27 19:16N 33°46' W 118°13'0 0.0
2016-Jul-27 18:33N 33°46' W 118°13'0 0.0
2016-Jul-27 15:29N 33°46' W 118°13'0 0.0
2016-Jul-27 14:26N 33°46' W 118°13'0 0.0
2016-Jul-27 13:19N 33°46' W 118°13'0 0.0
2016-Jul-27 12:22N 33°46' W 118°13'0 0.0
2016-Jul-27 11:33N 33°46' W 118°13'0 0.0
2016-Jul-27 09:33N 33°46' W 118°13'0 0.0
2016-Jul-27 08:10N 33°46' W 118°13'0 0.0
2016-Jul-27 05:27N 33°46' W 118°13'0 0.0
2016-Jul-27 04:33N 33°46' W 118°13'0 0.0
2016-Jul-27 03:32N 33°46' W 118°13'0 0.0
2016-Jul-27 02:33N 33°46' W 118°13'0 0.0
2016-Jul-27 01:32N 33°46' W 118°13'0 0.0
2016-Jul-27 00:31N 33°46' W 118°13'0 0.0
2016-Jul-26 23:33N 33°46' W 118°13'0 0.0
2016-Jul-26 22:23N 33°46' W 118°13'0 0.0
2016-Jul-26 21:33N 33°46' W 118°13'0 0.0
2016-Jul-26 20:30N 33°46' W 118°13'0 0.0
2016-Jul-26 17:33N 33°46' W 118°13'0 0.0
2016-Jul-26 16:18N 33°46' W 118°13'0 0.0
2016-Jul-26 15:32N 33°46' W 118°13'0 0.0
2016-Jul-26 14:29N 33°46' W 118°13'0 0.0
2016-Jul-26 11:17N 33°46' W 118°13'0 0.0
2016-Jul-26 07:04N 33°46' W 118°13'0 0.0
2016-Jul-26 05:33N 33°46' W 118°13'0 0.0
2016-Jul-26 04:21N 33°46' W 118°13'0 0.0
2016-Jul-26 03:31N 33°46' W 118°13'0 0.0
2016-Jul-26 02:31N 33°46' W 118°13'0 0.0
2016-Jul-26 01:33N 33°46' W 118°13'0 0.0
2016-Jul-26 00:33N 33°46' W 118°13'0 0.0
2016-Jul-25 23:33N 33°46' W 118°13'0 0.0
2016-Jul-25 22:33N 33°46' W 118°13'0 0.0
2016-Jul-25 21:33N 33°46' W 118°13'0 0.0
2016-Jul-25 20:32N 33°46' W 118°13'0 0.0
2016-Jul-25 19:09N 33°46' W 118°13'0 0.0
2016-Jul-25 18:33N 33°46' W 118°13'0 0.0
2016-Jul-25 17:09N 33°46' W 118°13'0 0.0
2016-Jul-25 16:31N 33°46' W 118°13'0 0.0
2016-Jul-25 14:21N 33°46' W 118°13'0 0.0
2016-Jul-25 08:16N 33°46' W 118°13'0 0.0
2016-Jul-25 06:31N 33°46' W 118°13'0 0.0
2016-Jul-25 05:29N 33°46' W 118°13'0 0.0
2016-Jul-25 04:33N 33°46' W 118°13'0 0.0
2016-Jul-25 03:31N 33°46' W 118°13'0 0.0
2016-Jul-25 02:33N 33°46' W 118°13'0 0.0
2016-Jul-25 01:10N 33°46' W 118°13'0 0.0
2016-Jul-25 00:26N 33°46' W 118°13'0 0.0
2016-Jul-24 23:33N 33°46' W 118°13'0 0.0
2016-Jul-24 22:28N 33°46' W 118°13'0 0.0
2016-Jul-24 21:24N 33°46' W 118°13'0 0.0
2016-Jul-24 16:32N 33°46' W 118°13'0 0.0
2016-Jul-24 15:26N 33°46' W 118°13'0 0.0
2016-Jul-24 14:33N 33°46' W 118°13'0 0.0
2016-Jul-24 13:33N 33°46' W 118°13'0 0.0
2016-Jul-24 12:33N 33°46' W 118°13'0 0.0
2016-Jul-24 11:33N 33°46' W 118°13'0 0.0
2016-Jul-24 10:12N 33°46' W 118°13'0 0.0
2016-Jul-24 09:33N 33°46' W 118°13'0 0.0
2016-Jul-24 08:33N 33°46' W 118°13'0 0.0
2016-Jul-24 07:33N 33°46' W 118°13'0 0.0
2016-Jul-24 06:32N 33°46' W 118°13'0 0.0
2016-Jul-24 05:33N 33°46' W 118°13'1 0.1
2016-Jul-23 21:33N 33°46' W 118°13'1312.7
2016-Jul-23 20:34N 33°34' W 118°06'1717.0
2016-Jul-23 19:33N 33°19' W 117°58'1110.6
2016-Jul-23 18:33N 33°09' W 117°53'7 6.9
2016-Jul-23 17:33N 33°04' W 117°48'0 0.4
2016-Jul-23 16:33N 33°03' W 117°48'1 0.8
2016-Jul-23 15:33N 33°03' W 117°47'2 1.6
2016-Jul-23 14:33N 33°01' W 117°47'2 2.2
2016-Jul-23 13:33N 33°01' W 117°49'3 2.8
2016-Jul-23 12:33N 33°00' W 117°46'1 0.8
2016-Jul-23 11:33N 32°60' W 117°46'1 0.7
2016-Jul-23 10:33N 32°59' W 117°46'1 1.4
2016-Jul-23 09:33N 33°00' W 117°45'2 1.6
2016-Jul-23 08:33N 33°01' W 117°46'2 1.6
2016-Jul-23 07:33N 32°59' W 117°47'1 0.8
2016-Jul-23 06:33N 32°59' W 117°48'1 0.3
2016-Jul-23 04:33N 32°58' W 117°48'2 2.3
2016-Jul-23 03:34N 32°57' W 117°45'1 0.7
2016-Jul-23 02:33N 32°57' W 117°46'0 0.5
2016-Jul-23 01:33N 32°58' W 117°46'2 1.6
2016-Jul-23 00:33N 32°56' W 117°45'1 1.1
2016-Jul-22 23:33N 32°55' W 117°44'1 1.4
2016-Jul-22 22:33N 32°57' W 117°45'1 1.4
2016-Jul-22 21:33N 32°58' W 117°46'1 1.2
2016-Jul-22 20:33N 32°58' W 117°47'1 1.1
2016-Jul-22 19:33N 32°59' W 117°48'1 1.1
2016-Jul-22 18:33N 32°59' W 117°50'1 0.8
2016-Jul-22 17:33N 32°60' W 117°49'1 0.9
2016-Jul-22 16:33N 33°00' W 117°49'0 0.5
2016-Jul-22 15:33N 33°01' W 117°50'0 0.4
2016-Jul-22 14:33N 33°01' W 117°50'0 0.2
2016-Jul-22 13:33N 33°01' W 117°51'0 0.3
2016-Jul-22 12:33N 33°01' W 117°51'2 1.6
2016-Jul-22 11:33N 33°02' W 117°52'1 1.4
2016-Jul-22 10:33N 33°01' W 117°52'3 3.5
2016-Jul-22 09:33N 33°04' W 117°54'5 4.8
2016-Jul-22 08:33N 33°08' W 117°56'2 2.2
2016-Jul-22 07:33N 33°10' W 117°58'12 5.9
2016-Jul-22 05:33N 33°08' W 117°44'3 2.8
2016-Jul-22 04:33N 33°07' W 117°41'3 2.5
2016-Jul-22 03:33N 33°06' W 117°44'4 4.2
2016-Jul-22 02:33N 33°06' W 117°49'3 3.4
2016-Jul-22 01:33N 33°06' W 117°53'1 1.0
2016-Jul-22 00:33N 33°06' W 117°52'2 1.6
2016-Jul-21 23:34N 33°05' W 117°51'1 1.1
2016-Jul-21 22:34N 33°04' W 117°50'1 0.9
2016-Jul-21 21:34N 33°04' W 117°49'1 1.3
2016-Jul-21 20:34N 33°03' W 117°48'1 0.7
2016-Jul-21 19:34N 33°02' W 117°48'1 1.2
2016-Jul-21 18:33N 33°01' W 117°47'0 0.2
2016-Jul-21 17:34N 33°01' W 117°47'0 0.2
2016-Jul-21 16:34N 33°01' W 117°47'1 1.0
2016-Jul-21 15:34N 32°60' W 117°46'1 1.3
2016-Jul-21 14:33N 32°59' W 117°45'1 0.6
2016-Jul-21 13:33N 32°58' W 117°45'2 1.9
2016-Jul-21 12:33N 32°59' W 117°47'0 0.3
2016-Jul-21 11:34N 32°59' W 117°47'0 0.4
2016-Jul-21 10:34N 32°58' W 117°47'3 2.5
2016-Jul-21 09:34N 32°60' W 117°49'0 0.2
2016-Jul-21 08:34N 32°60' W 117°50'1 0.6
2016-Jul-21 07:33N 32°60' W 117°49'2 1.7
2016-Jul-21 06:34N 33°01' W 117°49'3 2.8
2016-Jul-21 05:34N 33°02' W 117°53'1 1.5
2016-Jul-21 04:34N 33°00' W 117°52'2 1.9
2016-Jul-21 03:34N 32°59' W 117°51'3 2.6
2016-Jul-21 02:34N 33°01' W 117°53'3 3.4
2016-Jul-21 01:33N 33°04' W 117°54'4 4.2
2016-Jul-21 00:33N 33°08' W 117°57'2 1.5
2016-Jul-20 23:33N 33°09' W 117°57'0 0.2
2016-Jul-20 22:33N 33°09' W 117°57'9 9.2
2016-Jul-20 21:33N 33°18' W 117°58'1717.3
2016-Jul-20 20:33N 33°35' W 118°05'  

Dump ship's entire track history